Terminal Aerodrome Forecast
Issued by NWS

Home | Current Version | Previous Version | Text Only | Print | Product List | Glossary On
Versions: 1 2 3 4 5 6 7 8 9 10 11 12 13 14 15 16 17 18 19 20 21 22 23
777
FTAK31 PANC 101127
TAFATK
TAF
PATK 101127Z 1012/1112 02006KT P6SM SKC
     FM102000 02010KT P6SM FEW100 BKN200
     FM110000 02005KT P6SM SCT050 OVC090=

USA.gov is the U.S. government's official web portal to all federal, state and local government web resources and services.